createdAt,value
2023-02-23T00:01:27.095Z,101095.41
2023-02-23T00:03:56.745Z,101095.03
2023-02-23T00:06:26.321Z,101098.31
2023-02-23T00:08:53.446Z,101091.34
2023-02-23T00:11:22.230Z,101100.75
2023-02-23T00:13:50.863Z,101093.63
2023-02-23T00:16:23.715Z,101098.94
2023-02-23T00:18:53.913Z,101093.25
2023-02-23T00:21:24.102Z,101093.47
2023-02-23T00:23:54.768Z,101096.75
2023-02-23T00:26:24.978Z,101092.25
2023-02-23T00:28:53.898Z,101083.28
2023-02-23T00:31:27.082Z,101084.13
2023-02-23T00:33:56.247Z,101087.38
2023-02-23T00:36:26.628Z,101083.72
2023-02-23T00:38:55.111Z,101082.53
2023-02-23T00:41:28.479Z,101084.13
2023-02-23T00:43:57.101Z,101084.97
2023-02-23T00:46:28.285Z,101086.19
2023-02-23T00:48:57.924Z,101086.56
2023-02-23T00:51:30.787Z,101082.47
2023-02-23T00:53:59.394Z,101091.63
2023-02-23T00:56:27.671Z,101099.16
2023-02-23T00:58:55.566Z,101095.91
2023-02-23T01:01:24.362Z,101104.44
2023-02-23T01:03:55.775Z,101097.03
2023-02-23T01:06:23.094Z,101095.78
2023-02-23T01:08:56.936Z,101100.84
2023-02-23T01:11:33.240Z,101110.41
2023-02-23T01:14:01.356Z,101108.72
2023-02-23T01:16:31.914Z,101111.13
2023-02-23T01:19:03.414Z,101115.19
2023-02-23T01:21:33.895Z,101113.91
2023-02-23T01:24:02.248Z,101117.97
2023-02-23T01:26:33.885Z,101108.75
2023-02-23T01:29:04.162Z,101106.69
2023-02-23T01:31:31.720Z,101105.25
2023-02-23T01:34:03.360Z,101103.78
2023-02-23T01:36:35.079Z,101107.81
2023-02-23T01:39:06.131Z,101104.72
2023-02-23T01:41:35.421Z,101110.41
2023-02-23T01:44:06.183Z,101103.84
2023-02-23T01:46:35.349Z,101109.16
2023-02-23T01:49:06.279Z,101107.88
2023-02-23T01:51:39.476Z,101104.56
2023-02-23T01:54:15.719Z,101108.22
2023-02-23T01:56:47.371Z,101106.59
2023-02-23T01:59:17.849Z,101107.63
2023-02-23T02:01:45.432Z,101106.78
2023-02-23T02:04:19.466Z,101109.63
2023-02-23T02:06:53.547Z,101102.47
2023-02-23T02:09:28.006Z,101108.59
2023-02-23T02:11:54.904Z,101101.28
2023-02-23T02:14:27.158Z,101106.59
2023-02-23T02:17:10.349Z,101103.31
2023-02-23T02:20:37.921Z,101109.38
2023-02-23T02:23:50.011Z,101104.69
2023-02-23T02:26:33.428Z,101104.97
2023-02-23T02:29:43.058Z,101101.50
2023-02-23T02:33:06.278Z,101101.69
2023-02-23T02:36:10.298Z,101099.66
2023-02-23T02:38:53.873Z,101099.47
2023-02-23T02:41:35.632Z,101109.50
2023-02-23T02:44:15.105Z,101097.69
2023-02-23T02:46:49.900Z,101099.81
2023-02-23T02:49:29.856Z,101105.72
2023-02-23T02:52:05.637Z,101102.28
2023-02-23T02:54:40.458Z,101103.06
2023-02-23T02:57:11.057Z,101100.88
2023-02-23T03:00:05.256Z,101095.38
2023-02-23T03:02:53.971Z,101094.56
2023-02-23T03:05:47.474Z,101101.31
2023-02-23T03:08:41.168Z,101092.75
2023-02-23T03:11:31.317Z,101090.28
2023-02-23T03:14:35.763Z,101094.13
2023-02-23T03:17:31.913Z,101102.28
2023-02-23T03:20:29.401Z,101098.81
2023-02-23T03:23:24.220Z,101103.69
2023-02-23T03:26:20.622Z,101100.25
2023-02-23T03:29:18.310Z,101101.88
2023-02-23T03:32:12.232Z,101102.34
2023-02-23T03:35:05.739Z,101102.97
2023-02-23T03:37:59.575Z,101104.63
2023-02-23T03:40:52.045Z,101108.25
2023-02-23T03:43:43.573Z,101103.16
2023-02-23T03:46:33.653Z,101104.38
2023-02-23T03:49:23.152Z,101101.06
2023-02-23T03:52:15.367Z,101106.75
2023-02-23T03:55:12.625Z,101108.78
2023-02-23T03:58:01.761Z,101106.94
2023-02-23T04:00:52.945Z,101107.59
2023-02-23T04:03:42.264Z,101114.69
2023-02-23T04:06:33.082Z,101112.88
2023-02-23T04:09:24.930Z,101108.38
2023-02-23T04:12:18.613Z,101114.06
2023-02-23T04:14:56.063Z,101107.47
2023-02-23T04:17:28.280Z,101111.13
2023-02-23T04:19:57.473Z,101116.81
2023-02-23T04:22:25.128Z,101111.88
2023-02-23T04:24:52.513Z,101123.66
2023-02-23T04:27:19.506Z,101122.88
2023-02-23T04:29:46.834Z,101122.88
2023-02-23T04:32:17.441Z,101124.69
2023-02-23T04:34:44.917Z,101128.16
2023-02-23T04:37:13.718Z,101124.50
2023-02-23T04:39:42.608Z,101124.50
2023-02-23T04:42:10.097Z,101130.59
2023-02-23T04:44:37.040Z,101125.31
2023-02-23T04:47:04.093Z,101132.44
2023-02-23T04:49:31.026Z,101132.44
2023-02-23T04:51:58.131Z,101122.88
2023-02-23T04:54:26.928Z,101131.44
2023-02-23T04:56:53.991Z,101123.50
2023-02-23T04:59:20.988Z,101127.75
2023-02-23T05:01:48.296Z,101127.75
2023-02-23T05:04:15.228Z,101127.75
2023-02-23T05:06:42.874Z,101126.16
2023-02-23T05:09:10.091Z,101131.44
2023-02-23T05:11:38.329Z,101134.09
2023-02-23T05:14:05.418Z,101133.06
2023-02-23T05:16:32.413Z,101137.34
2023-02-23T05:18:59.359Z,101129.41
2023-02-23T05:21:26.349Z,101141.63
2023-02-23T05:23:53.273Z,101133.06
2023-02-23T05:26:20.343Z,101129.78
2023-02-23T05:28:48.781Z,101129.97
2023-02-23T05:31:15.902Z,101128.53
2023-02-23T05:33:43.084Z,101130.16
2023-02-23T05:36:12.266Z,101135.44
2023-02-23T05:38:40.578Z,101146.03
2023-02-23T05:41:08.040Z,101144.41
2023-02-23T05:43:35.312Z,101133.00
2023-02-23T05:46:07.011Z,101137.47
2023-02-23T05:48:34.964Z,101135.66
2023-02-23T05:51:03.079Z,101133.00
2023-02-23T05:53:30.229Z,101136.28
2023-02-23T05:55:57.360Z,101141.56
2023-02-23T05:58:25.027Z,101142.03
2023-02-23T06:00:53.091Z,101148.31
2023-02-23T06:03:22.487Z,101154.63
2023-02-23T06:05:54.854Z,101156.63
2023-02-23T06:08:23.015Z,101155.63
2023-02-23T06:10:49.893Z,101151.34
2023-02-23T06:13:17.953Z,101154.19
2023-02-23T06:15:45.248Z,101163.94
2023-02-23T06:18:12.592Z,101157.81
2023-02-23T06:20:40.974Z,101153.34
2023-02-23T06:23:08.080Z,101163.94
2023-02-23T06:25:35.152Z,101168.25
2023-02-23T06:28:02.182Z,101158.28
2023-02-23T06:30:29.510Z,101162.94
2023-02-23T06:32:56.413Z,101168.41
2023-02-23T06:35:24.162Z,101172.91
2023-02-23T06:37:52.549Z,101164.13
2023-02-23T06:40:20.584Z,101171.25
2023-02-23T06:42:47.659Z,101173.28
2023-02-23T06:45:14.605Z,101178.56
2023-02-23T06:47:41.639Z,101176.91
2023-02-23T06:50:10.598Z,101178.56
2023-02-23T06:52:37.952Z,101181.84
2023-02-23T06:55:08.936Z,101188.78
2023-02-23T06:57:35.945Z,101195.72
2023-02-23T07:00:04.143Z,101197.00
2023-02-23T07:02:31.696Z,101198.25
2023-02-23T07:04:58.811Z,101193.59
2023-02-23T07:07:25.971Z,101205.63
2023-02-23T07:09:52.892Z,101206.75
2023-02-23T07:12:21.169Z,101212.50
2023-02-23T07:14:48.093Z,101212.28
2023-02-23T07:17:15.031Z,101221.25
2023-02-23T07:19:42.009Z,101216.94
2023-02-23T07:22:09.075Z,101217.97
2023-02-23T07:24:36.181Z,101213.50
2023-02-23T07:27:03.094Z,101215.97
2023-02-23T07:29:31.441Z,101218.03
2023-02-23T07:31:58.403Z,101221.16
2023-02-23T07:34:25.514Z,101228.69
2023-02-23T07:36:52.400Z,101221.00
2023-02-23T07:39:19.358Z,101219.81
2023-02-23T07:41:46.305Z,101227.41
2023-02-23T07:44:13.213Z,101224.19
2023-02-23T07:46:41.858Z,101228.91
2023-02-23T07:49:09.340Z,101234.63
2023-02-23T07:51:36.188Z,101226.53
2023-02-23T07:54:05.015Z,101232.25
2023-02-23T07:56:32.522Z,101231.88
2023-02-23T07:58:59.707Z,101233.53
2023-02-23T08:01:26.681Z,101229.84
2023-02-23T08:03:55.047Z,101239.81
2023-02-23T08:06:22.038Z,101233.91
2023-02-23T08:08:49.187Z,101246.16
2023-02-23T08:11:16.177Z,101249.81
2023-02-23T08:13:43.146Z,101256.91
2023-02-23T08:16:12.337Z,101257.13
2023-02-23T08:18:39.453Z,101251.19
2023-02-23T08:21:07.886Z,101258.50
2023-02-23T08:23:35.513Z,101257.84
2023-02-23T08:26:03.101Z,101258.69
2023-02-23T08:28:31.344Z,101265.19
2023-02-23T08:30:59.375Z,101259.25
2023-02-23T08:33:26.546Z,101266.84
2023-02-23T08:35:53.554Z,101262.16
2023-02-23T08:38:21.885Z,101265.06
2023-02-23T08:40:48.755Z,101268.34
2023-02-23T08:43:16.335Z,101275.53
2023-02-23T08:45:43.454Z,101276.19
2023-02-23T08:48:10.383Z,101276.19
2023-02-23T08:50:37.303Z,101275.16
2023-02-23T08:53:05.234Z,101274.41
2023-02-23T08:55:35.515Z,101270.16
2023-02-23T08:58:02.430Z,101274.91
2023-02-23T09:00:29.359Z,101268.84
2023-02-23T09:02:56.308Z,101268.47
2023-02-23T09:05:23.313Z,101262.78
2023-02-23T09:07:50.759Z,101265.44
2023-02-23T09:10:20.327Z,101263.97
2023-02-23T09:12:48.640Z,101268.84
2023-02-23T09:15:15.576Z,101270.47
2023-02-23T09:17:44.742Z,101276.03
2023-02-23T09:20:15.664Z,101278.94
2023-02-23T09:22:48.588Z,101276.75
2023-02-23T09:25:18.208Z,101277.16
2023-02-23T09:27:45.469Z,101275.75
2023-02-23T09:30:17.642Z,101281.06
2023-02-23T09:32:45.451Z,101278.59
2023-02-23T09:35:12.607Z,101283.66
2023-02-23T09:37:39.500Z,101279.97
2023-02-23T09:40:10.333Z,101278.69
2023-02-23T09:42:46.034Z,101286.00
2023-02-23T09:45:27.039Z,101285.75
2023-02-23T09:48:13.969Z,101295.75
2023-02-23T09:50:47.575Z,101292.25
2023-02-23T09:53:33.990Z,101295.16
2023-02-23T09:56:05.351Z,101297.50
2023-02-23T09:58:34.524Z,101296.28
2023-02-23T10:01:38.447Z,101291.00
2023-02-23T10:04:15.777Z,101293.44
2023-02-23T10:06:51.007Z,101297.94
2023-02-23T10:09:35.919Z,101296.66
2023-02-23T10:12:11.381Z,101287.25
2023-02-23T10:15:10.303Z,101296.81
2023-02-23T10:17:53.619Z,101294.59
2023-02-23T10:20:29.960Z,101288.47
2023-02-23T10:23:04.804Z,101290.31
2023-02-23T10:25:38.004Z,101284.81
2023-02-23T10:28:05.649Z,101287.09
2023-02-23T10:30:34.753Z,101293.84
2023-02-23T10:33:15.235Z,101299.16
2023-02-23T10:35:43.033Z,101298.75
2023-02-23T10:38:16.099Z,101301.81
2023-02-23T10:40:46.419Z,101302.81
2023-02-23T10:43:14.309Z,101296.88
2023-02-23T10:45:46.387Z,101306.84
2023-02-23T10:48:22.664Z,101292.97
2023-02-23T10:50:53.773Z,101296.25
2023-02-23T10:53:26.477Z,101292.41
2023-02-23T10:56:08.010Z,101297.13
2023-02-23T10:58:43.460Z,101303.69
2023-02-23T11:01:11.319Z,101297.53
2023-02-23T11:03:44.867Z,101306.06
2023-02-23T11:06:31.093Z,101303.63
2023-02-23T11:08:58.170Z,101317.09
2023-02-23T11:11:31.249Z,101321.50
2023-02-23T11:13:58.620Z,101322.25
2023-02-23T11:16:30.692Z,101320.16
2023-02-23T11:19:01.636Z,101310.13
2023-02-23T11:21:34.670Z,101314.19
2023-02-23T11:24:18.071Z,101306.97
2023-02-23T11:26:48.639Z,101306.97
2023-02-23T11:29:24.375Z,101303.31
2023-02-23T11:31:55.750Z,101309.00
2023-02-23T11:34:30.525Z,101303.22
2023-02-23T11:37:08.034Z,101301.41
2023-02-23T11:39:35.378Z,101293.09
2023-02-23T11:42:22.129Z,101302.03
2023-02-23T11:45:03.134Z,101300.03
2023-02-23T11:47:32.795Z,101304.69
2023-02-23T11:50:04.687Z,101292.81
2023-02-23T11:52:32.315Z,101299.16
2023-02-23T11:55:05.386Z,101306.06
2023-02-23T11:57:35.498Z,101299.16
2023-02-23T12:00:11.097Z,101297.50
2023-02-23T12:02:51.547Z,101301.16
2023-02-23T12:05:24.526Z,101297.88
2023-02-23T12:08:01.358Z,101301.09
2023-02-23T12:10:36.932Z,101301.91
2023-02-23T12:13:26.388Z,101298.03
2023-02-23T12:16:02.660Z,101302.81
2023-02-23T12:18:46.069Z,101296.97
2023-02-23T12:21:29.879Z,101304.28
2023-02-23T12:24:14.510Z,101304.50
2023-02-23T12:26:51.054Z,101298.38
2023-02-23T12:29:31.066Z,101299.38
2023-02-23T12:32:02.966Z,101302.63
2023-02-23T12:34:39.475Z,101297.75
2023-02-23T12:37:29.114Z,101301.75
2023-02-23T12:40:03.985Z,101298.47
2023-02-23T12:42:42.778Z,101302.50
2023-02-23T12:45:21.956Z,101301.25
2023-02-23T12:47:59.427Z,101306.28
2023-02-23T12:50:32.020Z,101312.28
2023-02-23T12:53:18.072Z,101302.50
2023-02-23T12:56:04.295Z,101306.53
2023-02-23T12:58:45.594Z,101298.59
2023-02-23T13:01:22.613Z,101304.16
2023-02-23T13:04:12.683Z,101314.75
2023-02-23T13:06:54.999Z,101309.28
2023-02-23T13:09:43.816Z,101307.44
2023-02-23T13:12:36.026Z,101309.72
2023-02-23T13:15:23.521Z,101308.56
2023-02-23T13:18:02.018Z,101314.31
2023-02-23T13:20:37.262Z,101311.50
2023-02-23T13:23:17.059Z,101307.00
2023-02-23T13:25:58.041Z,101299.06
2023-02-23T13:28:40.116Z,101303.16
2023-02-23T13:31:23.355Z,101300.97
2023-02-23T13:33:53.890Z,101295.94
2023-02-23T13:36:23.477Z,101298.19
2023-02-23T13:39:22.283Z,101295.56
2023-02-23T13:42:11.173Z,101300.50
2023-02-23T13:44:49.256Z,101296.44
2023-02-23T13:47:34.713Z,101292.81
2023-02-23T13:50:16.127Z,101297.09
2023-02-23T13:52:59.142Z,101299.00
2023-02-23T13:55:49.531Z,101294.97
2023-02-23T13:58:26.937Z,101295.84
2023-02-23T14:01:05.870Z,101292.47
2023-02-23T14:03:47.032Z,101295.38
2023-02-23T14:06:18.198Z,101297.25
2023-02-23T14:08:53.281Z,101298.50
2023-02-23T14:11:49.182Z,101304.63
2023-02-23T14:14:43.526Z,101300.38
2023-02-23T14:17:57.386Z,101300.53
2023-02-23T14:20:53.873Z,101306.47
2023-02-23T14:23:36.077Z,101303.81
2023-02-23T14:26:15.175Z,101301.25
2023-02-23T14:28:44.969Z,101299.47
2023-02-23T14:31:25.152Z,101298.91
2023-02-23T14:33:59.908Z,101283.03
2023-02-23T14:36:45.045Z,101288.78
2023-02-23T14:39:23.374Z,101283.72
2023-02-23T14:41:54.340Z,101287.03
2023-02-23T14:44:30.511Z,101282.09
2023-02-23T14:47:06.361Z,101282.34
2023-02-23T14:49:40.266Z,101284.63
2023-02-23T14:52:13.836Z,101281.97
2023-02-23T14:54:41.520Z,101276.66
2023-02-23T14:57:20.138Z,101282.34
2023-02-23T14:59:56.353Z,101291.53
2023-02-23T15:02:28.394Z,101287.88
2023-02-23T15:04:56.583Z,101286.84
2023-02-23T15:07:36.158Z,101289.50
2023-02-23T15:10:12.752Z,101285.84
2023-02-23T15:12:42.893Z,101287.88
2023-02-23T15:15:18.770Z,101286.59
2023-02-23T15:17:54.946Z,101279.69
2023-02-23T15:20:32.841Z,101282.50
2023-02-23T15:23:05.865Z,101283.91
2023-02-23T15:25:44.537Z,101290.00
2023-02-23T15:28:33.089Z,101286.63
2023-02-23T15:31:02.505Z,101287.66
2023-02-23T15:33:31.115Z,101289.69
2023-02-23T15:36:08.344Z,101297.00
2023-02-23T15:38:44.304Z,101284.38
2023-02-23T15:41:25.332Z,101299.47
2023-02-23T15:43:52.616Z,101301.91
2023-02-23T15:46:26.817Z,101294.34
2023-02-23T15:49:00.784Z,101301.66
2023-02-23T15:51:36.371Z,101301.41
2023-02-23T15:54:13.838Z,101308.69
2023-02-23T15:56:41.489Z,101310.25
2023-02-23T15:59:17.028Z,101318.69
2023-02-23T16:01:46.345Z,101319.44
2023-02-23T16:04:21.637Z,101325.84
2023-02-23T16:06:55.700Z,101324.06
2023-02-23T16:09:29.451Z,101335.19
2023-02-23T16:12:03.066Z,101336.94
2023-02-23T16:14:42.570Z,101342.59
2023-02-23T16:17:26.088Z,101357.16
2023-02-23T16:20:11.013Z,101345.19
2023-02-23T16:22:39.886Z,101349.09
2023-02-23T16:25:13.846Z,101348.97
2023-02-23T16:27:44.593Z,101355.81
2023-02-23T16:30:23.977Z,101361.44
2023-02-23T16:33:10.884Z,101363.34
2023-02-23T16:35:46.306Z,101356.72
2023-02-23T16:38:20.530Z,101362.38
2023-02-23T16:40:48.702Z,101360.09
2023-02-23T16:43:16.286Z,101366.44
2023-02-23T16:45:44.005Z,101371.72
2023-02-23T16:48:14.576Z,101374.59
2023-02-23T16:50:45.365Z,101373.81
2023-02-23T16:53:14.249Z,101374.50
2023-02-23T16:55:54.978Z,101381.13
2023-02-23T16:58:25.949Z,101383.78
2023-02-23T17:00:53.666Z,101386.41
2023-02-23T17:03:24.970Z,101385.59
2023-02-23T17:05:54.170Z,101384.41
2023-02-23T17:08:21.801Z,101383.44
2023-02-23T17:10:52.348Z,101390.34
2023-02-23T17:13:22.362Z,101388.72
2023-02-23T17:15:55.974Z,101394.00
2023-02-23T17:21:03.803Z,101402.09
2023-02-23T17:23:42.411Z,101397.31
2023-02-23T17:26:11.822Z,101395.00
2023-02-23T17:28:39.769Z,101402.28
2023-02-23T17:31:08.257Z,101397.38
2023-02-23T17:33:36.990Z,101393.41
2023-02-23T17:36:10.344Z,101395.41
2023-02-23T17:38:38.501Z,101387.47
2023-02-23T17:41:08.813Z,101385.81
2023-02-23T17:43:37.511Z,101393.09
2023-02-23T17:46:05.747Z,101398.38
2023-02-23T17:48:35.408Z,101394.25
2023-02-23T17:51:08.263Z,101400.03
2023-02-23T17:53:35.863Z,101402.56
2023-02-23T17:56:02.809Z,101397.13
2023-02-23T17:58:30.064Z,101404.72
2023-02-23T18:00:59.123Z,101404.59
2023-02-23T18:03:32.258Z,101408.06
2023-02-23T18:06:00.822Z,101404.91
2023-02-23T18:08:29.879Z,101413.00
2023-02-23T18:10:58.275Z,101401.47
2023-02-23T18:13:26.855Z,101405.56
2023-02-23T18:15:58.362Z,101405.41
2023-02-23T18:18:25.345Z,101409.88
2023-02-23T18:20:55.465Z,101410.69
2023-02-23T18:23:24.423Z,101408.06
2023-02-23T18:25:52.658Z,101409.03
2023-02-23T18:28:19.666Z,101403.09
2023-02-23T18:30:46.869Z,101408.56
2023-02-23T18:33:16.706Z,101405.09
2023-02-23T18:35:47.428Z,101400.47
2023-02-23T18:38:15.772Z,101408.06
2023-02-23T18:40:42.919Z,101399.81
2023-02-23T18:43:11.450Z,101403.25
2023-02-23T18:45:38.345Z,101399.81
2023-02-23T18:48:13.270Z,101404.41
2023-02-23T18:50:41.141Z,101399.97
2023-02-23T18:53:10.773Z,101393.84
2023-02-23T18:55:38.468Z,101401.94
2023-02-23T18:58:05.664Z,101400.47
2023-02-23T19:00:40.032Z,101400.66
2023-02-23T19:03:07.341Z,101395.69
2023-02-23T19:05:36.164Z,101402.63
2023-02-23T19:08:03.987Z,101393.25
2023-02-23T19:10:30.874Z,101393.75
2023-02-23T19:12:57.769Z,101396.22
2023-02-23T19:15:25.266Z,101390.59
2023-02-23T19:17:54.319Z,101393.91
2023-02-23T19:20:22.754Z,101387.66
2023-02-23T19:22:49.818Z,101389.00
2023-02-23T19:25:17.003Z,101386.00
2023-02-23T19:27:44.006Z,101390.63
2023-02-23T19:30:13.501Z,101388.13
2023-02-23T19:32:40.776Z,101386.31
2023-02-23T19:35:14.599Z,101389.94
2023-02-23T19:37:47.386Z,101384.84
2023-02-23T19:40:16.622Z,101389.28
2023-02-23T19:42:45.795Z,101385.00
2023-02-23T19:45:13.282Z,101383.69
2023-02-23T19:47:40.544Z,101383.69
2023-02-23T19:50:13.288Z,101388.94
2023-02-23T19:52:40.255Z,101384.97
2023-02-23T19:55:08.694Z,101390.81
2023-02-23T19:57:35.605Z,101386.00
2023-02-23T20:00:04.651Z,101388.97
2023-02-23T20:02:31.601Z,101386.19
2023-02-23T20:04:58.531Z,101389.47
2023-02-23T20:07:26.858Z,101394.56
2023-02-23T20:09:53.968Z,101397.22
2023-02-23T20:12:20.903Z,101403.13
2023-02-23T20:14:49.458Z,101410.06
2023-02-23T20:17:16.358Z,101409.25
2023-02-23T20:19:43.278Z,101410.25
2023-02-23T20:22:10.254Z,101415.66
2023-02-23T20:24:38.453Z,101420.28
2023-02-23T20:27:05.312Z,101408.09
2023-02-23T20:29:34.034Z,101410.41
2023-02-23T20:32:02.648Z,101411.06
2023-02-23T20:34:29.935Z,101414.47
2023-02-23T20:36:56.880Z,101403.13
2023-02-23T20:39:24.706Z,101409.22
2023-02-23T20:41:53.662Z,101408.38
2023-02-23T20:44:23.200Z,101400.28
2023-02-23T20:46:50.877Z,101407.06
2023-02-23T20:49:18.960Z,101399.78
2023-02-23T20:51:48.407Z,101404.56
2023-02-23T20:54:16.779Z,101402.41
2023-02-23T20:56:44.946Z,101404.38
2023-02-23T20:59:13.700Z,101398.78
2023-02-23T21:01:42.509Z,101398.91
2023-02-23T21:04:09.693Z,101395.81
2023-02-23T21:06:36.900Z,101393.31
2023-02-23T21:09:12.419Z,101395.13
2023-02-23T21:11:39.386Z,101390.00
2023-02-23T21:14:08.274Z,101383.25
2023-02-23T21:16:40.745Z,101387.88
2023-02-23T21:19:07.823Z,101382.09
2023-02-23T21:21:39.296Z,101379.63
2023-02-23T21:24:06.760Z,101377.97
2023-02-23T21:26:33.870Z,101376.31
2023-02-23T21:29:02.701Z,101381.59
2023-02-23T21:31:30.497Z,101364.66
2023-02-23T21:33:58.797Z,101367.44
2023-02-23T21:36:25.722Z,101366.44
2023-02-23T21:38:52.650Z,101371.72
2023-02-23T21:41:19.971Z,101365.31
2023-02-23T21:43:48.462Z,101366.75
2023-02-23T21:46:16.692Z,101367.25
2023-02-23T21:48:44.456Z,101364.44
2023-02-23T21:51:16.553Z,101365.03
2023-02-23T21:53:45.708Z,101372.59
2023-02-23T21:56:15.481Z,101366.66
2023-02-23T21:58:47.564Z,101367.66
2023-02-23T22:01:18.970Z,101358.78
2023-02-23T22:03:48.040Z,101362.91
2023-02-23T22:06:20.889Z,101356.50
2023-02-23T22:08:52.361Z,101361.44
2023-02-23T22:11:24.699Z,101346.31
2023-02-23T22:13:58.664Z,101353.91
2023-02-23T22:16:28.613Z,101341.22
2023-02-23T22:18:55.526Z,101350.63
2023-02-23T22:21:24.470Z,101347.31
2023-02-23T22:23:53.262Z,101342.88
2023-02-23T22:26:20.140Z,101346.19
2023-02-23T22:28:47.045Z,101348.69
2023-02-23T22:31:14.572Z,101350.31
2023-02-23T22:33:43.913Z,101348.38
2023-02-23T22:36:14.627Z,101329.75
2023-02-23T22:38:42.898Z,101336.34
2023-02-23T22:41:10.964Z,101329.94
2023-02-23T22:43:38.666Z,101330.75
2023-02-23T22:46:07.785Z,101333.38
2023-02-23T22:48:35.749Z,101332.56
2023-02-23T22:51:04.026Z,101327.59
2023-02-23T22:53:31.276Z,101322.50
2023-02-23T22:55:59.585Z,101320.72
2023-02-23T22:58:26.851Z,101321.38
2023-02-23T23:01:04.712Z,101306.41
2023-02-23T23:03:35.637Z,101310.53
2023-02-23T23:06:04.621Z,101310.34
2023-02-23T23:08:38.536Z,101298.97
2023-02-23T23:11:10.343Z,101294.72
2023-02-23T23:13:43.157Z,101297.19
2023-02-23T23:16:16.785Z,101284.66
2023-02-23T23:18:55.933Z,101281.88
2023-02-23T23:21:26.227Z,101275.78
2023-02-23T23:23:56.944Z,101275.78
2023-02-23T23:26:27.875Z,101276.63
2023-02-23T23:28:57.809Z,101272.97
2023-02-23T23:31:30.586Z,101266.75
2023-02-23T23:34:00.346Z,101264.09
2023-02-23T23:36:33.313Z,101264.09
2023-02-23T23:39:01.678Z,101261.47
2023-02-23T23:41:35.652Z,101259.00
2023-02-23T23:44:05.134Z,101258.84
2023-02-23T23:46:35.438Z,101255.38
2023-02-23T23:49:05.972Z,101252.91
2023-02-23T23:51:38.747Z,101250.44
2023-02-23T23:54:08.568Z,101250.59
2023-02-23T23:56:37.375Z,101253.91
2023-02-23T23:59:07.561Z,101250.59
